Wetterdaten: Woche 08.09.25 - 14.09.25 (KW37)
Datum Zeit Temp. Aussen Temp. o. S. Temp +5cm Feuchte Auss Luftdruck Regen Sonnenschein Regendauer Solar Windböen Empfang
08.09.2025 00:00 20,1 °C 18,9 °C 15,6 °C 70 % 1014,0 hPa 0,0 l/m² 0,00 h 0,00 h 0 W/m² 8,1 km/h (2 Bft) 92,51 %
08.09.2025 01:00 19,6 °C 18,6 °C 15,0 °C 72 % 1013,9 hPa 0,0 l/m² 0,00 h 0,00 h 0 W/m² 10,0 km/h (2 Bft) 97,80 %
08.09.2025 02:00 19,4 °C 18,3 °C 14,9 °C 73 % 1013,7 hPa 0,0 l/m² 0,00 h 0,00 h 0 W/m² 13,2 km/h (3 Bft) 97,94 %
08.09.2025 03:00 18,9 °C 17,8 °C 14,4 °C 75 % 1013,6 hPa 0,0 l/m² 0,00 h 0,00 h 0 W/m² 8,1 km/h (2 Bft) 96,63 %
08.09.2025 04:00 18,7 °C 17,8 °C 14,4 °C 76 % 1014,1 hPa 0,0 l/m² 0,00 h 0,00 h 0 W/m² 12,5 km/h (3 Bft) 97,68 %
08.09.2025 05:00 18,5 °C 17,3 °C 13,8 °C 77 % 1014,0 hPa 0,0 l/m² 0,00 h 0,07 h 0 W/m² 5,2 km/h (1 Bft) 98,37 %
08.09.2025 06:00 17,9 °C 16,4 °C 12,2 °C 84 % 1014,3 hPa 0,4 l/m² 0,00 h 0,70 h 0 W/m² 2,6 km/h (1 Bft) 95,95 %
08.09.2025 07:00 17,4 °C 15,9 °C 12,1 °C 91 % 1014,8 hPa 1,0 l/m² 0,00 h 0,43 h 8 W/m² 0,5 km/h (0 Bft) 94,66 %
08.09.2025 08:00 17,7 °C 16,5 °C 12,9 °C 95 % 1015,0 hPa 3,0 l/m² 0,00 h 0,73 h 17 W/m² 0,0 km/h (0 Bft) 87,97 %
08.09.2025 09:00 18,2 °C 17,4 °C 13,5 °C 97 % 1015,1 hPa 0,2 l/m² 0,00 h 0,17 h 53 W/m² 0,0 km/h (0 Bft) 62,86 %
08.09.2025 10:00 18,7 °C 18,3 °C 14,1 °C 98 % 1015,7 hPa 0,0 l/m² 0,00 h 0,00 h 97 W/m² 1,6 km/h (1 Bft) 78,23 %
08.09.2025 11:00 19,4 °C 19,3 °C 14,7 °C 99 % 1016,2 hPa 0,0 l/m² 0,00 h 0,00 h 118 W/m² 1,8 km/h (1 Bft) 96,27 %
08.09.2025 12:00 19,7 °C 20,0 °C 15,0 °C 98 % 1016,5 hPa 0,0 l/m² 0,00 h 0,00 h 162 W/m² 0,3 km/h (0 Bft) 97,21 %
08.09.2025 13:00 20,9 °C 22,0 °C 16,1 °C 96 % 1016,8 hPa 0,0 l/m² 0,00 h 0,00 h 225 W/m² 2,7 km/h (1 Bft) 98,67 %
08.09.2025 14:00 22,5 °C 22,8 °C 18,2 °C 86 % 1016,8 hPa 0,0 l/m² 0,73 h 0,00 h 431 W/m² 8,6 km/h (2 Bft) 97,42 %
08.09.2025 15:00 24,6 °C 25,6 °C 19,4 °C 75 % 1016,7 hPa 0,0 l/m² 0,77 h 0,00 h 549 W/m² 8,6 km/h (2 Bft) 97,86 %
08.09.2025 16:00 24,1 °C 25,2 °C 19,4 °C 74 % 1016,8 hPa 0,0 l/m² 0,30 h 0,00 h 251 W/m² 7,7 km/h (2 Bft) 97,37 %
08.09.2025 17:00 24,5 °C 26,7 °C 19,8 °C 72 % 1016,7 hPa 0,0 l/m² 0,63 h 0,00 h 281 W/m² 8,1 km/h (2 Bft) 97,95 %
08.09.2025 18:00 24,4 °C 24,1 °C 19,4 °C 72 % 1016,4 hPa 0,0 l/m² 0,37 h 0,00 h 113 W/m² 5,0 km/h (1 Bft) 95,68 %
08.09.2025 19:00 22,3 °C 21,3 °C 17,6 °C 74 % 1016,7 hPa 0,0 l/m² 0,00 h 0,00 h 21 W/m² 8,3 km/h (2 Bft) 76,73 %
08.09.2025 20:00 21,1 °C 19,8 °C 16,3 °C 78 % 1017,1 hPa 0,0 l/m² 0,00 h 0,00 h 0 W/m² 9,6 km/h (2 Bft) 85,88 %
08.09.2025 21:00 19,8 °C 18,9 °C 15,1 °C 81 % 1017,3 hPa 0,0 l/m² 0,00 h 0,00 h 0 W/m² 5,4 km/h (1 Bft) 95,85 %
08.09.2025 22:00 19,3 °C 18,3 °C 14,9 °C 82 % 1017,4 hPa 0,0 l/m² 0,00 h 0,00 h 0 W/m² 5,8 km/h (2 Bft) 97,22 %
08.09.2025 23:00 19,0 °C 18,1 °C 14,4 °C 83 % 1017,3 hPa 0,0 l/m² 0,00 h 0,00 h 0 W/m² 8,5 km/h (2 Bft) 96,89 %
09.09.2025 00:00 18,6 °C 17,8 °C 14,3 °C 85 % 1017,0 hPa 0,0 l/m² 0,00 h 0,00 h 0 W/m² 6,4 km/h (2 Bft) 92,63 %
09.09.2025 01:00 18,2 °C 17,2 °C 13,1 °C 88 % 1016,7 hPa 2,6 l/m² 0,00 h 0,50 h 0 W/m² 6,5 km/h (2 Bft) 96,82 %
09.09.2025 02:00 17,4 °C 15,9 °C 12,2 °C 94 % 1016,9 hPa 5,4 l/m² 0,00 h 1,00 h 0 W/m² 5,6 km/h (1 Bft) 85,47 %
09.09.2025 03:00 16,5 °C 15,1 °C 11,7 °C 97 % 1016,6 hPa 12,6 l/m² 0,00 h 1,00 h 0 W/m² 10,8 km/h (2 Bft) 95,11 %
09.09.2025 04:00 16,2 °C 15,1 °C 11,7 °C 98 % 1016,4 hPa 12,0 l/m² 0,00 h 1,00 h 0 W/m² 12,1 km/h (2 Bft) 98,92 %
09.09.2025 05:00 15,4 °C 14,3 °C 11,1 °C 99 % 1016,4 hPa 5,6 l/m² 0,00 h 1,00 h 0 W/m² 2,4 km/h (1 Bft) 96,32 %
09.09.2025 06:00 15,2 °C 14,2 °C 10,9 °C 99 % 1015,4 hPa 4,8 l/m² 0,00 h 0,90 h 0 W/m² 3,2 km/h (1 Bft) 97,86 %
09.09.2025 07:00 15,2 °C 14,2 °C 10,9 °C 99 % 1015,5 hPa 1,0 l/m² 0,00 h 0,73 h 0 W/m² 2,3 km/h (1 Bft) 97,38 %
09.09.2025 08:00 15,3 °C 14,4 °C 11,1 °C 99 % 1016,3 hPa 5,7 l/m² 0,00 h 1,00 h 7 W/m² 1,8 km/h (1 Bft) 97,34 %
09.09.2025 09:00 15,1 °C 14,3 °C 11,0 °C 99 % 1016,4 hPa 1,9 l/m² 0,00 h 0,83 h 10 W/m² 2,6 km/h (1 Bft) 97,09 %
09.09.2025 10:00 15,0 °C 14,1 °C 10,9 °C 100 % 1016,4 hPa 3,8 l/m² 0,00 h 1,00 h 13 W/m² 2,2 km/h (1 Bft) 97,59 %
09.09.2025 11:00 14,7 °C 13,9 °C 10,6 °C 100 % 1016,0 hPa 4,8 l/m² 0,00 h 0,90 h 42 W/m² 5,2 km/h (1 Bft) 96,94 %
09.09.2025 12:00 14,8 °C 14,3 °C 10,7 °C 100 % 1015,7 hPa 0,2 l/m² 0,00 h 0,33 h 72 W/m² 9,3 km/h (2 Bft) 91,15 %
09.09.2025 13:00 15,1 °C 14,7 °C 11,1 °C 100 % 1015,5 hPa 0,0 l/m² 0,00 h 0,00 h 80 W/m² 11,3 km/h (2 Bft) 97,82 %
09.09.2025 14:00 14,9 °C 14,8 °C 11,0 °C 100 % 1015,8 hPa 0,0 l/m² 0,00 h 0,00 h 79 W/m² 12,0 km/h (2 Bft) 89,13 %
09.09.2025 15:00 14,6 °C 14,4 °C 10,6 °C 99 % 1016,1 hPa 0,0 l/m² 0,00 h 0,00 h 61 W/m² 13,1 km/h (3 Bft) 92,42 %
09.09.2025 16:00 14,8 °C 15,0 °C 10,8 °C 99 % 1016,0 hPa 0,0 l/m² 0,00 h 0,00 h 109 W/m² 7,0 km/h (2 Bft) 93,18 %
09.09.2025 17:00 15,0 °C 14,8 °C 11,0 °C 97 % 1015,8 hPa 0,0 l/m² 0,00 h 0,00 h 61 W/m² 6,2 km/h (2 Bft) 98,09 %
09.09.2025 18:00 15,2 °C 14,9 °C 11,2 °C 96 % 1015,8 hPa 0,0 l/m² 0,10 h 0,00 h 55 W/m² 7,5 km/h (2 Bft) 94,90 %
09.09.2025 19:00 14,7 °C 14,1 °C 10,7 °C 96 % 1015,8 hPa 0,0 l/m² 0,00 h 0,00 h 12 W/m² 5,6 km/h (1 Bft) 97,00 %
09.09.2025 20:00 14,3 °C 13,3 °C 10,3 °C 95 % 1016,2 hPa 0,0 l/m² 0,00 h 0,00 h 0 W/m² 0,0 km/h (0 Bft) 98,01 %
09.09.2025 21:00 14,1 °C 12,8 °C 9,9 °C 96 % 1015,9 hPa 0,0 l/m² 0,00 h 0,00 h 0 W/m² 0,1 km/h (0 Bft) 96,31 %
09.09.2025 22:00 13,3 °C 11,9 °C 9,0 °C 96 % 1015,7 hPa 0,0 l/m² 0,00 h 0,00 h 0 W/m² 0,5 km/h (0 Bft) 96,55 %
09.09.2025 23:00 12,6 °C 11,1 °C 8,5 °C 96 % 1015,1 hPa 0,0 l/m² 0,00 h 0,00 h 0 W/m² 0,0 km/h (0 Bft) 98,01 %
10.09.2025 00:00 12,0 °C 10,6 °C 7,9 °C 97 % 1014,6 hPa 0,0 l/m² 0,00 h 0,00 h 0 W/m² 0,0 km/h (0 Bft) 95,86 %
10.09.2025 01:00 11,7 °C 10,6 °C 7,8 °C 97 % 1014,3 hPa 0,0 l/m² 0,00 h 0,00 h 0 W/m² 0,0 km/h (0 Bft) 96,96 %
10.09.2025 02:00 11,2 °C 10,0 °C 7,4 °C 97 % 1013,9 hPa 0,0 l/m² 0,00 h 0,00 h 0 W/m² 0,7 km/h (0 Bft) 95,80 %
10.09.2025 03:00 11,3 °C 10,7 °C 8,0 °C 98 % 1013,5 hPa 0,2 l/m² 0,00 h 0,00 h 0 W/m² 0,2 km/h (0 Bft) 97,31 %
10.09.2025 04:00 11,7 °C 11,0 °C 8,4 °C 99 % 1013,3 hPa 0,0 l/m² 0,00 h 0,00 h 0 W/m² 0,5 km/h (0 Bft) 96,35 %
10.09.2025 05:00 12,2 °C 11,7 °C 9,0 °C 99 % 1013,0 hPa 0,0 l/m² 0,00 h 0,00 h 0 W/m² 0,2 km/h (0 Bft) 96,81 %
10.09.2025 06:00 12,4 °C 11,8 °C 9,1 °C 99 % 1012,4 hPa 0,0 l/m² 0,00 h 0,00 h 6 W/m² 0,0 km/h (0 Bft) 98,19 %
10.09.2025 07:00 12,5 °C 12,0 °C 9,2 °C 100 % 1012,2 hPa 0,0 l/m² 0,00 h 0,00 h 13 W/m² 0,0 km/h (0 Bft) 96,56 %
10.09.2025 08:00 13,0 °C 12,8 °C 10,0 °C 100 % 1012,1 hPa 0,0 l/m² 0,00 h 0,00 h 43 W/m² 1,9 km/h (1 Bft) 96,59 %
10.09.2025 09:00 13,3 °C 13,6 °C 10,5 °C 100 % 1011,9 hPa 0,0 l/m² 0,00 h 0,00 h 109 W/m² 7,4 km/h (2 Bft) 98,72 %
10.09.2025 10:00 14,0 °C 15,3 °C 11,7 °C 100 % 1011,4 hPa 0,0 l/m² 0,17 h 0,00 h 211 W/m² 8,0 km/h (2 Bft) 95,36 %
10.09.2025 11:00 15,3 °C 17,7 °C 13,1 °C 99 % 1010,8 hPa 0,0 l/m² 0,30 h 0,00 h 316 W/m² 10,6 km/h (2 Bft) 97,37 %
10.09.2025 12:00 17,4 °C 18,8 °C 14,3 °C 89 % 1010,2 hPa 0,0 l/m² 0,27 h 0,00 h 304 W/m² 9,4 km/h (2 Bft) 96,72 %
10.09.2025 13:00 18,8 °C 19,5 °C 14,6 °C 80 % 1009,4 hPa 0,0 l/m² 0,40 h 0,00 h 425 W/m² 13,6 km/h (3 Bft) 98,58 %
10.09.2025 14:00 20,6 °C 28,3 °C 15,4 °C 71 % 1008,6 hPa 0,0 l/m² 1,00 h 0,00 h 707 W/m² 12,2 km/h (3 Bft) 96,43 %
10.09.2025 15:00 21,8 °C 27,8 °C 16,2 °C 62 % 1007,9 hPa 0,0 l/m² 1,00 h 0,00 h 644 W/m² 13,6 km/h (3 Bft) 97,79 %
10.09.2025 16:00 22,6 °C 26,2 °C 17,4 °C 57 % 1007,2 hPa 0,0 l/m² 0,97 h 0,00 h 490 W/m² 14,4 km/h (3 Bft) 97,96 %
10.09.2025 17:00 22,9 °C 26,1 °C 17,9 °C 58 % 1006,5 hPa 0,0 l/m² 1,00 h 0,00 h 380 W/m² 13,9 km/h (3 Bft) 95,92 %
10.09.2025 18:00 21,6 °C 21,3 °C 16,7 °C 63 % 1006,0 hPa 0,0 l/m² 0,57 h 0,00 h 120 W/m² 12,7 km/h (3 Bft) 97,56 %
10.09.2025 19:00 20,2 °C 19,0 °C 15,2 °C 71 % 1005,7 hPa 0,0 l/m² 0,17 h 0,00 h 33 W/m² 7,8 km/h (2 Bft) 98,92 %
10.09.2025 20:00 18,9 °C 17,4 °C 13,9 °C 76 % 1005,5 hPa 0,0 l/m² 0,00 h 0,00 h 0 W/m² 5,5 km/h (1 Bft) 94,45 %
10.09.2025 21:00 17,9 °C 16,7 °C 13,1 °C 80 % 1005,4 hPa 0,0 l/m² 0,00 h 0,00 h 0 W/m² 7,3 km/h (2 Bft) 99,08 %
10.09.2025 22:00 17,4 °C 16,6 °C 12,8 °C 85 % 1005,2 hPa 0,0 l/m² 0,00 h 0,00 h 0 W/m² 9,0 km/h (2 Bft) 97,44 %
10.09.2025 23:00 17,3 °C 16,3 °C 12,8 °C 87 % 1005,0 hPa 0,0 l/m² 0,00 h 0,00 h 0 W/m² 13,3 km/h (3 Bft) 95,22 %
11.09.2025 00:00 16,8 °C 15,8 °C 12,2 °C 90 % 1004,6 hPa 0,0 l/m² 0,00 h 0,07 h 0 W/m² 11,8 km/h (2 Bft) 98,48 %
11.09.2025 01:00 16,3 °C 15,6 °C 12,2 °C 91 % 1004,2 hPa 0,0 l/m² 0,00 h 0,00 h 0 W/m² 12,0 km/h (2 Bft) 97,15 %
11.09.2025 02:00 16,3 °C 15,6 °C 12,2 °C 91 % 1004,0 hPa 0,0 l/m² 0,00 h 0,00 h 0 W/m² 10,1 km/h (2 Bft) 96,12 %
11.09.2025 03:00 16,3 °C 15,6 °C 12,2 °C 90 % 1003,6 hPa 0,0 l/m² 0,00 h 0,00 h 0 W/m² 8,6 km/h (2 Bft) 98,55 %
11.09.2025 04:00 16,3 °C 15,8 °C 12,2 °C 88 % 1003,5 hPa 0,0 l/m² 0,00 h 0,00 h 0 W/m² 11,3 km/h (2 Bft) 95,79 %
11.09.2025 05:00 16,8 °C 16,1 °C 12,2 °C 86 % 1003,3 hPa 0,0 l/m² 0,00 h 0,00 h 0 W/m² 10,6 km/h (2 Bft) 98,01 %
11.09.2025 06:00 16,7 °C 15,6 °C 11,7 °C 89 % 1003,5 hPa 0,0 l/m² 0,00 h 0,07 h 0 W/m² 15,6 km/h (3 Bft) 97,97 %
11.09.2025 07:00 16,0 °C 15,1 °C 11,6 °C 94 % 1004,1 hPa 0,0 l/m² 0,00 h 0,00 h 16 W/m² 15,5 km/h (3 Bft) 97,08 %
11.09.2025 08:00 16,0 °C 15,7 °C 12,0 °C 94 % 1004,8 hPa 0,0 l/m² 0,00 h 0,00 h 49 W/m² 11,5 km/h (2 Bft) 97,88 %
11.09.2025 09:00 16,6 °C 16,4 °C 12,8 °C 88 % 1005,7 hPa 0,0 l/m² 0,10 h 0,00 h 118 W/m² 15,3 km/h (3 Bft) 96,30 %
11.09.2025 10:00 17,3 °C 17,1 °C 13,1 °C 81 % 1006,3 hPa 0,0 l/m² 0,10 h 0,00 h 158 W/m² 19,0 km/h (3 Bft) 95,73 %
11.09.2025 11:00 18,1 °C 18,1 °C 14,0 °C 76 % 1006,8 hPa 0,0 l/m² 0,10 h 0,00 h 213 W/m² 21,1 km/h (4 Bft) 98,51 %
11.09.2025 12:00 18,0 °C 18,3 °C 14,2 °C 73 % 1007,3 hPa 0,0 l/m² 0,20 h 0,00 h 254 W/m² 19,6 km/h (3 Bft) 94,83 %
11.09.2025 13:00 18,3 °C 18,5 °C 13,8 °C 77 % 1007,6 hPa 0,0 l/m² 0,20 h 0,10 h 254 W/m² 18,8 km/h (3 Bft) 88,44 %
11.09.2025 14:00 19,1 °C 20,8 °C 15,0 °C 71 % 1007,4 hPa 0,0 l/m² 0,47 h 0,00 h 390 W/m² 24,5 km/h (4 Bft) 95,49 %
11.09.2025 15:00 19,3 °C 21,4 °C 15,1 °C 69 % 1007,5 hPa 0,0 l/m² 0,63 h 0,00 h 430 W/m² 27,2 km/h (4 Bft) 97,51 %
11.09.2025 16:00 17,5 °C 17,4 °C 12,2 °C 79 % 1007,9 hPa 5,5 l/m² 0,30 h 0,60 h 174 W/m² 22,8 km/h (4 Bft) 96,89 %
11.09.2025 17:00 15,3 °C 14,9 °C 10,5 °C 94 % 1008,0 hPa 0,2 l/m² 0,10 h 0,10 h 120 W/m² 7,7 km/h (2 Bft) 98,01 %
11.09.2025 18:00 14,9 °C 13,9 °C 9,9 °C 93 % 1008,3 hPa 2,9 l/m² 0,37 h 0,40 h 64 W/m² 6,9 km/h (2 Bft) 94,01 %
11.09.2025 19:00 14,3 °C 13,5 °C 9,5 °C 95 % 1008,8 hPa 0,0 l/m² 0,17 h 0,00 h 27 W/m² 7,7 km/h (2 Bft) 96,58 %
11.09.2025 20:00 14,1 °C 12,9 °C 9,4 °C 95 % 1009,2 hPa 0,2 l/m² 0,00 h 0,10 h 0 W/m² 6,2 km/h (2 Bft) 96,19 %
11.09.2025 21:00 13,6 °C 12,8 °C 9,1 °C 96 % 1009,5 hPa 0,0 l/m² 0,00 h 0,08 h 0 W/m² 7,1 km/h (2 Bft) 94,02 %
11.09.2025 22:00 13,8 °C 13,1 °C 9,3 °C 96 % 1009,8 hPa 0,0 l/m² 0,00 h 0,03 h 0 W/m² 13,1 km/h (3 Bft) 97,59 %
11.09.2025 23:00 13,4 °C 12,8 °C 8,9 °C 96 % 1010,0 hPa 0,0 l/m² 0,00 h 0,00 h 0 W/m² 13,4 km/h (3 Bft) 65,03 %
12.09.2025 00:00 13,3 °C 12,8 °C 8,7 °C 95 % 1010,1 hPa 0,0 l/m² 0,00 h 0,00 h 0 W/m² 14,6 km/h (3 Bft) 78,84 %
12.09.2025 01:00 13,0 °C 12,2 °C 8,3 °C 94 % 1010,3 hPa 0,0 l/m² 0,00 h 0,00 h 0 W/m² 13,1 km/h (3 Bft) 96,41 %
12.09.2025 02:00 12,5 °C 11,7 °C 8,3 °C 94 % 1010,4 hPa 0,0 l/m² 0,00 h 0,00 h 0 W/m² 14,7 km/h (3 Bft) 94,73 %
12.09.2025 03:00 12,2 °C 11,4 °C 8,1 °C 93 % 1010,7 hPa 0,0 l/m² 0,00 h 0,00 h 0 W/m² 10,7 km/h (2 Bft) 95,77 %
12.09.2025 04:00 12,1 °C 11,2 °C 7,8 °C 93 % 1011,1 hPa 0,0 l/m² 0,00 h 0,00 h 0 W/m² 14,9 km/h (3 Bft) 91,92 %
12.09.2025 05:00 12,1 °C 11,3 °C 8,1 °C 93 % 1011,2 hPa 0,0 l/m² 0,00 h 0,00 h 0 W/m² 15,6 km/h (3 Bft) 87,08 %
12.09.2025 06:00 12,3 °C 11,7 °C 8,3 °C 94 % 1011,7 hPa 0,0 l/m² 0,00 h 0,00 h 0 W/m² 15,2 km/h (3 Bft) 97,65 %
12.09.2025 07:00 12,3 °C 11,7 °C 8,3 °C 93 % 1012,3 hPa 0,0 l/m² 0,00 h 0,00 h 13 W/m² 14,7 km/h (3 Bft) 95,46 %
12.09.2025 08:00 12,8 °C 12,4 °C 8,9 °C 92 % 1012,8 hPa 0,0 l/m² 0,00 h 0,00 h 28 W/m² 17,9 km/h (3 Bft) 97,34 %
12.09.2025 09:00 14,0 °C 13,7 °C 9,9 °C 88 % 1013,6 hPa 0,0 l/m² 0,00 h 0,00 h 59 W/m² 22,9 km/h (4 Bft) 88,33 %
12.09.2025 10:00 15,1 °C 15,0 °C 11,1 °C 84 % 1014,4 hPa 0,0 l/m² 0,00 h 0,00 h 147 W/m² 25,4 km/h (4 Bft) 93,69 %
12.09.2025 11:00 16,0 °C 16,3 °C 11,7 °C 79 % 1015,0 hPa 0,0 l/m² 0,25 h 0,00 h 260 W/m² 23,2 km/h (4 Bft) 96,64 %
12.09.2025 12:00 17,2 °C 18,5 °C 13,3 °C 74 % 1015,4 hPa 0,0 l/m² 0,45 h 0,00 h 384 W/m² 25,4 km/h (4 Bft) 92,80 %
12.09.2025 13:00 17,9 °C 18,1 °C 13,6 °C 72 % 1015,7 hPa 0,0 l/m² 0,17 h 0,00 h 248 W/m² 23,5 km/h (4 Bft) 98,93 %
12.09.2025 14:00 18,5 °C 21,2 °C 14,0 °C 67 % 1016,0 hPa 0,0 l/m² 0,57 h 0,00 h 499 W/m² 23,8 km/h (4 Bft) 95,59 %
12.09.2025 15:00 19,0 °C 22,1 °C 14,5 °C 66 % 1016,4 hPa 0,0 l/m² 0,77 h 0,00 h 532 W/m² 23,6 km/h (4 Bft) 97,79 %
12.09.2025 16:00 19,5 °C 21,4 °C 15,1 °C 64 % 1016,3 hPa 0,0 l/m² 0,63 h 0,00 h 389 W/m² 21,4 km/h (4 Bft) 97,29 %
12.09.2025 17:00 19,2 °C 20,4 °C 14,6 °C 64 % 1016,5 hPa 0,0 l/m² 0,53 h 0,00 h 221 W/m² 19,5 km/h (3 Bft) 92,02 %
12.09.2025 18:00 18,3 °C 18,4 °C 14,0 °C 66 % 1016,9 hPa 0,0 l/m² 0,50 h 0,00 h 125 W/m² 18,9 km/h (3 Bft) 93,75 %
12.09.2025 19:00 17,3 °C 16,1 °C 12,5 °C 70 % 1017,0 hPa 0,0 l/m² 0,00 h 0,00 h 20 W/m² 10,1 km/h (2 Bft) 99,25 %
12.09.2025 20:00 16,1 °C 14,2 °C 10,9 °C 76 % 1017,1 hPa 0,0 l/m² 0,00 h 0,00 h 0 W/m² 2,5 km/h (1 Bft) 94,63 %
12.09.2025 21:00 14,8 °C 13,7 °C 10,5 °C 81 % 1017,3 hPa 0,0 l/m² 0,00 h 0,00 h 0 W/m² 5,5 km/h (1 Bft) 98,80 %
12.09.2025 22:00 14,1 °C 13,0 °C 10,0 °C 82 % 1017,2 hPa 0,0 l/m² 0,00 h 0,00 h 0 W/m² 6,0 km/h (2 Bft) 95,66 %
12.09.2025 23:00 13,5 °C 12,5 °C 9,3 °C 83 % 1016,9 hPa 0,0 l/m² 0,00 h 0,00 h 0 W/m² 5,9 km/h (2 Bft) 96,35 %
13.09.2025 00:00 12,8 °C 11,7 °C 8,7 °C 86 % 1016,7 hPa 0,0 l/m² 0,00 h 0,00 h 0 W/m² 5,2 km/h (1 Bft) 97,76 %
13.09.2025 01:00 12,3 °C 11,7 °C 8,5 °C 89 % 1016,5 hPa 0,0 l/m² 0,00 h 0,00 h 0 W/m² 6,2 km/h (2 Bft) 96,94 %
13.09.2025 02:00 12,6 °C 12,2 °C 8,9 °C 89 % 1016,3 hPa 0,0 l/m² 0,00 h 0,00 h 0 W/m² 8,2 km/h (2 Bft) 97,65 %
13.09.2025 03:00 12,8 °C 11,9 °C 8,8 °C 88 % 1016,0 hPa 0,0 l/m² 0,00 h 0,00 h 0 W/m² 5,0 km/h (1 Bft) 96,55 %
13.09.2025 04:00 12,4 °C 11,7 °C 8,3 °C 89 % 1015,6 hPa 0,0 l/m² 0,00 h 0,00 h 0 W/m² 5,0 km/h (1 Bft) 98,60 %
13.09.2025 05:00 12,5 °C 11,8 °C 8,5 °C 91 % 1015,6 hPa 0,2 l/m² 0,00 h 0,23 h 0 W/m² 6,1 km/h (2 Bft) 97,09 %
13.09.2025 06:00 12,6 °C 11,7 °C 7,8 °C 93 % 1015,6 hPa 1,0 l/m² 0,00 h 0,33 h 0 W/m² 5,4 km/h (1 Bft) 97,51 %
13.09.2025 07:00 12,6 °C 11,7 °C 7,9 °C 95 % 1015,6 hPa 0,7 l/m² 0,00 h 0,33 h 9 W/m² 4,9 km/h (1 Bft) 97,50 %
13.09.2025 08:00 12,8 °C 12,3 °C 8,4 °C 96 % 1015,6 hPa 0,0 l/m² 0,00 h 0,07 h 38 W/m² 5,4 km/h (1 Bft) 96,73 %
13.09.2025 09:00 13,4 °C 13,5 °C 9,0 °C 97 % 1015,4 hPa 0,0 l/m² 0,00 h 0,00 h 108 W/m² 10,1 km/h (2 Bft) 97,09 %
13.09.2025 10:00 14,4 °C 15,0 °C 9,4 °C 95 % 1015,3 hPa 0,0 l/m² 0,13 h 0,00 h 149 W/m² 15,2 km/h (3 Bft) 95,94 %
13.09.2025 11:00 16,4 °C 17,4 °C 11,7 °C 83 % 1015,1 hPa 0,0 l/m² 0,20 h 0,00 h 284 W/m² 22,9 km/h (4 Bft) 92,09 %
13.09.2025 12:00 17,8 °C 18,2 °C 13,7 °C 77 % 1014,8 hPa 0,0 l/m² 0,10 h 0,00 h 211 W/m² 22,3 km/h (4 Bft) 95,62 %
13.09.2025 13:00 18,7 °C 18,9 °C 14,2 °C 72 % 1014,4 hPa 0,0 l/m² 0,13 h 0,00 h 207 W/m² 24,4 km/h (4 Bft) 99,08 %
13.09.2025 14:00 19,7 °C 22,5 °C 15,1 °C 68 % 1013,9 hPa 0,0 l/m² 0,37 h 0,00 h 309 W/m² 23,0 km/h (4 Bft) 94,59 %
13.09.2025 15:00 21,1 °C 24,8 °C 16,1 °C 63 % 1013,3 hPa 0,0 l/m² 0,87 h 0,00 h 537 W/m² 24,7 km/h (4 Bft) 91,17 %
13.09.2025 16:00 20,8 °C 23,1 °C 16,3 °C 62 % 1012,9 hPa 0,0 l/m² 0,80 h 0,00 h 430 W/m² 30,6 km/h (5 Bft) 89,46 %
13.09.2025 17:00 20,5 °C 20,7 °C 15,8 °C 64 % 1012,2 hPa 0,0 l/m² 0,40 h 0,00 h 166 W/m² 23,3 km/h (4 Bft) 93,80 %
13.09.2025 18:00 19,2 °C 18,5 °C 14,5 °C 71 % 1012,1 hPa 0,0 l/m² 0,10 h 0,00 h 74 W/m² 27,0 km/h (4 Bft) 92,60 %
13.09.2025 19:00 17,7 °C 16,0 °C 12,7 °C 80 % 1012,2 hPa 4,6 l/m² 0,00 h 0,35 h 10 W/m² 10,8 km/h (2 Bft) 95,33 %
13.09.2025 20:00 14,7 °C 12,9 °C 9,7 °C 93 % 1012,8 hPa 5,5 l/m² 0,00 h 0,53 h 0 W/m² 10,0 km/h (2 Bft) 93,54 %
13.09.2025 21:00 13,9 °C 12,8 °C 9,1 °C 95 % 1012,8 hPa 0,5 l/m² 0,00 h 0,57 h 0 W/m² 15,2 km/h (3 Bft) 97,41 %
13.09.2025 22:00 13,3 °C 11,9 °C 8,6 °C 95 % 1012,2 hPa 2,4 l/m² 0,00 h 0,60 h 0 W/m² 15,0 km/h (3 Bft) 96,66 %
13.09.2025 23:00 12,7 °C 11,7 °C 8,3 °C 97 % 1012,5 hPa 0,0 l/m² 0,00 h 0,00 h 0 W/m² 4,9 km/h (1 Bft) 96,93 %
14.09.2025 00:00 12,1 °C 11,1 °C 7,8 °C 97 % 1012,8 hPa 0,0 l/m² 0,00 h 0,00 h 0 W/m² 6,3 km/h (2 Bft) 98,28 %
14.09.2025 01:00 11,4 °C 10,6 °C 7,2 °C 97 % 1012,8 hPa 0,0 l/m² 0,00 h 0,00 h 0 W/m² 10,0 km/h (2 Bft) 97,45 %
14.09.2025 02:00 11,0 °C 10,1 °C 6,8 °C 97 % 1012,8 hPa 0,0 l/m² 0,00 h 0,00 h 0 W/m² 5,8 km/h (2 Bft) 96,73 %
14.09.2025 03:00 10,7 °C 9,9 °C 6,7 °C 97 % 1012,6 hPa 0,0 l/m² 0,00 h 0,00 h 0 W/m² 1,0 km/h (0 Bft) 99,41 %
14.09.2025 04:00 10,9 °C 10,0 °C 6,7 °C 97 % 1013,0 hPa 0,0 l/m² 0,00 h 0,00 h 0 W/m² 2,7 km/h (1 Bft) 94,66 %
14.09.2025 05:00 10,8 °C 9,8 °C 6,7 °C 98 % 1013,3 hPa 0,0 l/m² 0,00 h 0,00 h 0 W/m² 1,1 km/h (0 Bft) 98,15 %
14.09.2025 06:00 10,7 °C 9,6 °C 6,5 °C 98 % 1013,6 hPa 0,2 l/m² 0,00 h 0,00 h 0 W/m² 2,1 km/h (1 Bft) 96,59 %
14.09.2025 07:00 10,8 °C 10,0 °C 6,7 °C 98 % 1014,2 hPa 0,0 l/m² 0,00 h 0,00 h 12 W/m² 3,6 km/h (1 Bft) 96,42 %
14.09.2025 08:00 11,1 °C 10,7 °C 7,1 °C 98 % 1014,8 hPa 0,0 l/m² 0,00 h 0,00 h 28 W/m² 6,4 km/h (2 Bft) 98,16 %
14.09.2025 09:00 12,2 °C 12,1 °C 8,0 °C 98 % 1015,3 hPa 0,0 l/m² 0,00 h 0,00 h 42 W/m² 9,1 km/h (2 Bft) 97,02 %
14.09.2025 10:00 13,8 °C 14,0 °C 9,4 °C 94 % 1015,7 hPa 0,0 l/m² 0,13 h 0,00 h 135 W/m² 10,5 km/h (2 Bft) 98,20 %
14.09.2025 11:00 15,5 °C 16,4 °C 11,2 °C 86 % 1015,7 hPa 0,0 l/m² 0,43 h 0,00 h 331 W/m² 15,8 km/h (3 Bft) 95,11 %
14.09.2025 12:00 16,7 °C 17,4 °C 12,4 °C 79 % 1015,6 hPa 0,0 l/m² 0,13 h 0,00 h 199 W/m² 14,4 km/h (3 Bft) 97,74 %
14.09.2025 13:00 17,8 °C 18,2 °C 13,3 °C 73 % 1015,7 hPa 0,0 l/m² 0,23 h 0,00 h 266 W/m² 15,1 km/h (3 Bft) 96,44 %
14.09.2025 14:00 19,6 °C 25,3 °C 14,2 °C 65 % 1015,5 hPa 0,0 l/m² 0,93 h 0,00 h 651 W/m² 16,6 km/h (3 Bft) 98,11 %
14.09.2025 15:00 19,4 °C 20,9 °C 14,3 °C 65 % 1015,0 hPa 0,0 l/m² 0,47 h 0,00 h 346 W/m² 13,2 km/h (3 Bft) 84,55 %
14.09.2025 16:00 20,0 °C 22,0 °C 15,0 °C 63 % 1014,5 hPa 0,0 l/m² 0,87 h 0,00 h 333 W/m² 14,8 km/h (3 Bft) 86,50 %
14.09.2025 17:00 19,8 °C 20,6 °C 14,5 °C 63 % 1014,0 hPa 0,0 l/m² 0,57 h 0,00 h 207 W/m² 11,4 km/h (2 Bft) 98,60 %
14.09.2025 18:00 19,1 °C 17,8 °C 13,5 °C 67 % 1013,4 hPa 0,0 l/m² 0,00 h 0,00 h 54 W/m² 4,4 km/h (1 Bft) 95,74 %
14.09.2025 19:00 18,3 °C 16,9 °C 12,9 °C 71 % 1012,8 hPa 0,0 l/m² 0,00 h 0,00 h 6 W/m² 2,8 km/h (1 Bft) 96,08 %
14.09.2025 20:00 17,8 °C 16,7 °C 12,7 °C 74 % 1012,0 hPa 0,0 l/m² 0,00 h 0,03 h 0 W/m² 8,5 km/h (2 Bft) 95,96 %
14.09.2025 21:00 16,8 °C 15,0 °C 10,6 °C 86 % 1011,4 hPa 1,0 l/m² 0,00 h 0,40 h 0 W/m² 10,4 km/h (2 Bft) 94,34 %
14.09.2025 22:00 15,6 °C 14,5 °C 10,1 °C 92 % 1010,0 hPa 0,0 l/m² 0,00 h 0,00 h 0 W/m² 12,8 km/h (3 Bft) 98,76 %
14.09.2025 23:00 15,7 °C 15,0 °C 10,6 °C 93 % 1008,7 hPa 0,0 l/m² 0,00 h 0,03 h 0 W/m² 14,3 km/h (3 Bft) 97,23 %
Min-Datum _ 14.09.25 10.09.25 14.09.25 10.09.25 11.09.25 - - - - 08.09.25 08.09.25
_ Min-Zeit 06:12 02:32 06:02 16:48 04:42 - - - - 00:02 00:02
Minimum _ 10,6 °C 9,4 °C 6,1 °C 54 % 1003,3 hPa - - - - 0,0 km/h (0 Bft) 12,50 %
Max-Datum _ 08.09.25 08.09.25 08.09.25 09.09.25 08.09.25 09.09.25 12.09.25 09.09.25 12.09.25 13.09.25 08.09.25
_ Max-Zeit 18:12 15:26 16:42 08:46 23:54 03:12 12:00 08:30 14:36 18:32 00:08
Maximum _ 25,3 °C 31,7 °C 20,6 °C 100 % 1017,5 hPa 12,6 l/m² 0,08 h 0,08 h 905 W/m² 64,4 km/h
S-SO (8 Bft)
100,00 %
Durchschnitt _ 16,2 °C 16,0 °C 11,8 °C 86 % 1012,9 hPa #90,3 l/m² #22:12 h #17:20 h 187 W/m² 10,2 km/h (2 Bft) 95,26 %
© 2025 W. Hausmann